sensor_id;sensor_type;location;lat;lon;timestamp;temperature;humidity
23744;DHT22;12052;53.478;10.182;2023-08-24T00:02:01;19.70;99.90
23744;DHT22;12052;53.478;10.182;2023-08-24T00:04:27;19.70;99.90
23744;DHT22;12052;53.478;10.182;2023-08-24T00:06:53;19.60;99.90
23744;DHT22;12052;53.478;10.182;2023-08-24T00:09:19;19.60;99.90
23744;DHT22;12052;53.478;10.182;2023-08-24T00:11:45;19.50;99.90
23744;DHT22;12052;53.478;10.182;2023-08-24T00:14:10;19.50;99.90
23744;DHT22;12052;53.478;10.182;2023-08-24T00:16:37;19.40;99.90
23744;DHT22;12052;53.478;10.182;2023-08-24T00:19:02;19.40;99.90
23744;DHT22;12052;53.478;10.182;2023-08-24T00:21:28;19.40;99.90
23744;DHT22;12052;53.478;10.182;2023-08-24T00:23:54;19.40;99.90
23744;DHT22;12052;53.478;10.182;2023-08-24T00:26:20;19.40;99.90
23744;DHT22;12052;53.478;10.182;2023-08-24T00:28:46;19.30;99.90
23744;DHT22;12052;53.478;10.182;2023-08-24T00:31:12;19.30;99.90
23744;DHT22;12052;53.478;10.182;2023-08-24T00:33:38;19.30;99.90
23744;DHT22;12052;53.478;10.182;2023-08-24T00:36:05;19.30;99.90
23744;DHT22;12052;53.478;10.182;2023-08-24T00:38:31;19.30;99.90
23744;DHT22;12052;53.478;10.182;2023-08-24T00:40:57;19.20;99.90
23744;DHT22;12052;53.478;10.182;2023-08-24T00:43:27;19.20;99.90
23744;DHT22;12052;53.478;10.182;2023-08-24T00:45:55;19.10;99.90
23744;DHT22;12052;53.478;10.182;2023-08-24T00:48:22;19.10;99.90
23744;DHT22;12052;53.478;10.182;2023-08-24T00:50:52;19.10;99.90
23744;DHT22;12052;53.478;10.182;2023-08-24T00:53:19;19.10;99.90
23744;DHT22;12052;53.478;10.182;2023-08-24T00:55:45;19.10;99.90
23744;DHT22;12052;53.478;10.182;2023-08-24T00:58:11;19.10;99.90
23744;DHT22;12052;53.478;10.182;2023-08-24T01:00:38;19.10;99.90
23744;DHT22;12052;53.478;10.182;2023-08-24T01:03:04;19.10;99.90
23744;DHT22;12052;53.478;10.182;2023-08-24T01:05:29;19.10;99.90
23744;DHT22;12052;53.478;10.182;2023-08-24T01:07:55;19.10;99.90
23744;DHT22;12052;53.478;10.182;2023-08-24T01:10:21;19.10;99.90
23744;DHT22;12052;53.478;10.182;2023-08-24T01:12:59;19.00;99.90
23744;DHT22;12052;53.478;10.182;2023-08-24T01:15:48;19.00;99.90
23744;DHT22;12052;53.478;10.182;2023-08-24T01:18:17;19.00;99.90
23744;DHT22;12052;53.478;10.182;2023-08-24T01:20:46;19.00;99.90
23744;DHT22;12052;53.478;10.182;2023-08-24T01:26:13;19.00;99.90
23744;DHT22;12052;53.478;10.182;2023-08-24T01:28:40;19.00;99.90
23744;DHT22;12052;53.478;10.182;2023-08-24T01:31:06;19.00;99.90
23744;DHT22;12052;53.478;10.182;2023-08-24T01:33:33;19.00;99.90
23744;DHT22;12052;53.478;10.182;2023-08-24T01:35:59;19.00;99.90
23744;DHT22;12052;53.478;10.182;2023-08-24T01:38:24;19.00;99.90
23744;DHT22;12052;53.478;10.182;2023-08-24T01:41:01;18.90;99.90
23744;DHT22;12052;53.478;10.182;2023-08-24T01:43:31;18.90;99.90
23744;DHT22;12052;53.478;10.182;2023-08-24T01:46:00;18.90;99.90
23744;DHT22;12052;53.478;10.182;2023-08-24T01:48:29;18.80;99.90
23744;DHT22;12052;53.478;10.182;2023-08-24T01:50:55;18.80;99.90
23744;DHT22;12052;53.478;10.182;2023-08-24T01:53:22;18.80;99.90
23744;DHT22;12052;53.478;10.182;2023-08-24T01:55:47;18.80;99.90
23744;DHT22;12052;53.478;10.182;2023-08-24T01:58:13;18.70;99.90
23744;DHT22;12052;53.478;10.182;2023-08-24T02:00:39;18.70;99.90
23744;DHT22;12052;53.478;10.182;2023-08-24T02:03:04;18.70;99.90
23744;DHT22;12052;53.478;10.182;2023-08-24T02:05:30;18.70;99.90
23744;DHT22;12052;53.478;10.182;2023-08-24T02:07:55;18.70;99.90
23744;DHT22;12052;53.478;10.182;2023-08-24T02:10:22;18.60;99.90
23744;DHT22;12052;53.478;10.182;2023-08-24T02:12:48;18.60;99.90
23744;DHT22;12052;53.478;10.182;2023-08-24T02:15:14;18.60;99.90
23744;DHT22;12052;53.478;10.182;2023-08-24T02:17:39;18.60;99.90
23744;DHT22;12052;53.478;10.182;2023-08-24T02:20:06;18.50;99.90
23744;DHT22;12052;53.478;10.182;2023-08-24T02:22:33;18.60;99.90
23744;DHT22;12052;53.478;10.182;2023-08-24T02:24:59;18.50;99.90
23744;DHT22;12052;53.478;10.182;2023-08-24T02:27:26;18.60;99.90
23744;DHT22;12052;53.478;10.182;2023-08-24T02:29:52;18.50;99.90
23744;DHT22;12052;53.478;10.182;2023-08-24T02:32:17;18.50;99.90
23744;DHT22;12052;53.478;10.182;2023-08-24T02:34:43;18.50;99.90
23744;DHT22;12052;53.478;10.182;2023-08-24T02:37:09;18.40;99.90
23744;DHT22;12052;53.478;10.182;2023-08-24T02:39:34;18.40;99.90
23744;DHT22;12052;53.478;10.182;2023-08-24T02:42:00;18.30;99.90
23744;DHT22;12052;53.478;10.182;2023-08-24T02:44:26;18.30;99.90
23744;DHT22;12052;53.478;10.182;2023-08-24T02:46:53;18.30;99.90
23744;DHT22;12052;53.478;10.182;2023-08-24T02:49:19;18.20;99.90
23744;DHT22;12052;53.478;10.182;2023-08-24T02:51:46;18.20;99.90
23744;DHT22;12052;53.478;10.182;2023-08-24T02:54:11;18.20;99.90
23744;DHT22;12052;53.478;10.182;2023-08-24T02:56:37;18.20;99.90
23744;DHT22;12052;53.478;10.182;2023-08-24T02:59:02;18.20;99.90
23744;DHT22;12052;53.478;10.182;2023-08-24T03:01:28;18.20;99.90
23744;DHT22;12052;53.478;10.182;2023-08-24T03:03:54;18.20;99.90
23744;DHT22;12052;53.478;10.182;2023-08-24T03:06:20;18.20;99.90
23744;DHT22;12052;53.478;10.182;2023-08-24T03:08:45;18.20;99.90
23744;DHT22;12052;53.478;10.182;2023-08-24T03:11:11;18.20;99.90
23744;DHT22;12052;53.478;10.182;2023-08-24T03:13:37;18.20;99.90
23744;DHT22;12052;53.478;10.182;2023-08-24T03:16:05;18.20;99.90
23744;DHT22;12052;53.478;10.182;2023-08-24T03:18:30;18.20;99.90
23744;DHT22;12052;53.478;10.182;2023-08-24T03:20:56;18.10;99.90
23744;DHT22;12052;53.478;10.182;2023-08-24T03:23:22;18.20;99.90
23744;DHT22;12052;53.478;10.182;2023-08-24T03:25:48;18.10;99.90
23744;DHT22;12052;53.478;10.182;2023-08-24T03:28:13;18.10;99.90
23744;DHT22;12052;53.478;10.182;2023-08-24T03:30:45;18.10;99.90
23744;DHT22;12052;53.478;10.182;2023-08-24T03:33:10;18.10;99.90
23744;DHT22;12052;53.478;10.182;2023-08-24T03:35:36;18.00;99.90
23744;DHT22;12052;53.478;10.182;2023-08-24T03:38:01;18.00;99.90
23744;DHT22;12052;53.478;10.182;2023-08-24T03:40:28;18.00;99.90
23744;DHT22;12052;53.478;10.182;2023-08-24T03:42:54;17.90;99.90
23744;DHT22;12052;53.478;10.182;2023-08-24T03:45:20;17.90;99.90
23744;DHT22;12052;53.478;10.182;2023-08-24T03:47:46;17.90;99.90
23744;DHT22;12052;53.478;10.182;2023-08-24T03:50:11;17.90;99.90
23744;DHT22;12052;53.478;10.182;2023-08-24T03:52:37;17.80;99.90
23744;DHT22;12052;53.478;10.182;2023-08-24T03:55:05;17.70;99.90
23744;DHT22;12052;53.478;10.182;2023-08-24T03:57:31;17.70;99.90
23744;DHT22;12052;53.478;10.182;2023-08-24T03:59:57;17.70;99.90
23744;DHT22;12052;53.478;10.182;2023-08-24T04:02:23;17.70;99.90
23744;DHT22;12052;53.478;10.182;2023-08-24T04:04:48;17.60;99.90
23744;DHT22;12052;53.478;10.182;2023-08-24T04:07:14;17.60;99.90
23744;DHT22;12052;53.478;10.182;2023-08-24T04:09:40;17.60;99.90
23744;DHT22;12052;53.478;10.182;2023-08-24T04:12:06;17.60;99.90
23744;DHT22;12052;53.478;10.182;2023-08-24T04:14:32;17.50;99.90
23744;DHT22;12052;53.478;10.182;2023-08-24T04:16:57;17.50;99.90
23744;DHT22;12052;53.478;10.182;2023-08-24T04:19:23;17.50;99.90
23744;DHT22;12052;53.478;10.182;2023-08-24T04:21:49;17.50;99.90
23744;DHT22;12052;53.478;10.182;2023-08-24T04:24:14;17.40;99.90
23744;DHT22;12052;53.478;10.182;2023-08-24T04:26:40;17.40;99.90
23744;DHT22;12052;53.478;10.182;2023-08-24T04:29:05;17.40;99.90
23744;DHT22;12052;53.478;10.182;2023-08-24T04:31:31;17.40;99.90
23744;DHT22;12052;53.478;10.182;2023-08-24T04:33:57;17.40;99.90
23744;DHT22;12052;53.478;10.182;2023-08-24T04:36:22;17.40;99.90
23744;DHT22;12052;53.478;10.182;2023-08-24T04:38:48;17.40;99.90
23744;DHT22;12052;53.478;10.182;2023-08-24T04:41:13;17.40;99.90
23744;DHT22;12052;53.478;10.182;2023-08-24T04:43:39;17.40;99.90
23744;DHT22;12052;53.478;10.182;2023-08-24T04:46:04;17.40;99.90
23744;DHT22;12052;53.478;10.182;2023-08-24T04:48:30;17.40;99.90
23744;DHT22;12052;53.478;10.182;2023-08-24T04:50:59;17.40;99.90
23744;DHT22;12052;53.478;10.182;2023-08-24T04:53:26;17.40;99.90
23744;DHT22;12052;53.478;10.182;2023-08-24T04:55:52;17.40;99.90
23744;DHT22;12052;53.478;10.182;2023-08-24T04:58:18;17.30;99.90
23744;DHT22;12052;53.478;10.182;2023-08-24T05:00:44;17.30;99.90
23744;DHT22;12052;53.478;10.182;2023-08-24T05:03:10;17.30;99.90
23744;DHT22;12052;53.478;10.182;2023-08-24T05:05:36;17.40;99.90
23744;DHT22;12052;53.478;10.182;2023-08-24T05:08:03;17.40;99.90
23744;DHT22;12052;53.478;10.182;2023-08-24T05:10:32;17.40;99.90
23744;DHT22;12052;53.478;10.182;2023-08-24T05:12:58;17.40;99.90
23744;DHT22;12052;53.478;10.182;2023-08-24T05:15:23;17.40;99.90
23744;DHT22;12052;53.478;10.182;2023-08-24T05:17:49;17.40;99.90
23744;DHT22;12052;53.478;10.182;2023-08-24T05:20:16;17.40;99.90
23744;DHT22;12052;53.478;10.182;2023-08-24T05:22:42;17.40;99.90
23744;DHT22;12052;53.478;10.182;2023-08-24T05:25:08;17.40;99.90
23744;DHT22;12052;53.478;10.182;2023-08-24T05:27:33;17.40;99.90
23744;DHT22;12052;53.478;10.182;2023-08-24T05:29:59;17.40;99.90
23744;DHT22;12052;53.478;10.182;2023-08-24T05:32:24;17.40;99.90
23744;DHT22;12052;53.478;10.182;2023-08-24T05:34:50;17.30;99.90
23744;DHT22;12052;53.478;10.182;2023-08-24T05:37:16;17.30;99.90
23744;DHT22;12052;53.478;10.182;2023-08-24T05:39:42;17.30;99.90
23744;DHT22;12052;53.478;10.182;2023-08-24T05:42:08;17.30;99.90
23744;DHT22;12052;53.478;10.182;2023-08-24T05:44:34;17.30;99.90
23744;DHT22;12052;53.478;10.182;2023-08-24T05:46:59;17.40;99.90
23744;DHT22;12052;53.478;10.182;2023-08-24T05:49:25;17.50;99.90
23744;DHT22;12052;53.478;10.182;2023-08-24T05:51:52;17.50;99.90
23744;DHT22;12052;53.478;10.182;2023-08-24T05:54:18;17.50;99.90
23744;DHT22;12052;53.478;10.182;2023-08-24T05:56:45;17.60;99.90
23744;DHT22;12052;53.478;10.182;2023-08-24T05:59:10;17.70;99.90
23744;DHT22;12052;53.478;10.182;2023-08-24T06:01:36;17.90;99.90
23744;DHT22;12052;53.478;10.182;2023-08-24T06:04:05;18.00;99.90
23744;DHT22;12052;53.478;10.182;2023-08-24T06:06:31;18.10;99.90
23744;DHT22;12052;53.478;10.182;2023-08-24T06:08:56;18.20;99.90
23744;DHT22;12052;53.478;10.182;2023-08-24T06:11:22;18.40;99.90
23744;DHT22;12052;53.478;10.182;2023-08-24T06:13:48;18.50;99.90
23744;DHT22;12052;53.478;10.182;2023-08-24T06:16:14;18.80;99.90
23744;DHT22;12052;53.478;10.182;2023-08-24T06:18:39;19.00;99.90
23744;DHT22;12052;53.478;10.182;2023-08-24T06:21:05;19.20;99.90
23744;DHT22;12052;53.478;10.182;2023-08-24T06:23:30;19.30;99.90
23744;DHT22;12052;53.478;10.182;2023-08-24T06:25:56;19.40;99.90
23744;DHT22;12052;53.478;10.182;2023-08-24T06:28:21;19.30;99.90
23744;DHT22;12052;53.478;10.182;2023-08-24T06:30:47;19.20;99.90
23744;DHT22;12052;53.478;10.182;2023-08-24T06:33:13;19.30;99.90
23744;DHT22;12052;53.478;10.182;2023-08-24T06:35:40;19.60;99.90
23744;DHT22;12052;53.478;10.182;2023-08-24T06:38:05;19.50;99.90
23744;DHT22;12052;53.478;10.182;2023-08-24T06:40:31;19.70;99.90
23744;DHT22;12052;53.478;10.182;2023-08-24T06:42:57;19.90;99.90
23744;DHT22;12052;53.478;10.182;2023-08-24T06:45:23;19.80;99.90
23744;DHT22;12052;53.478;10.182;2023-08-24T06:47:48;19.70;99.90
23744;DHT22;12052;53.478;10.182;2023-08-24T06:50:14;19.70;99.90
23744;DHT22;12052;53.478;10.182;2023-08-24T06:52:41;19.60;99.90
23744;DHT22;12052;53.478;10.182;2023-08-24T06:55:08;19.70;99.90
23744;DHT22;12052;53.478;10.182;2023-08-24T06:57:34;19.60;99.90
23744;DHT22;12052;53.478;10.182;2023-08-24T07:00:00;19.70;99.90
23744;DHT22;12052;53.478;10.182;2023-08-24T07:02:25;19.70;99.90
23744;DHT22;12052;53.478;10.182;2023-08-24T07:04:51;19.80;99.90
23744;DHT22;12052;53.478;10.182;2023-08-24T07:07:17;20.00;99.90
23744;DHT22;12052;53.478;10.182;2023-08-24T07:09:42;20.10;99.90
23744;DHT22;12052;53.478;10.182;2023-08-24T07:12:09;20.10;99.90
23744;DHT22;12052;53.478;10.182;2023-08-24T07:14:36;20.20;99.90
23744;DHT22;12052;53.478;10.182;2023-08-24T07:17:01;20.30;99.90
23744;DHT22;12052;53.478;10.182;2023-08-24T07:19:27;20.30;99.90
23744;DHT22;12052;53.478;10.182;2023-08-24T07:21:52;20.40;99.90
23744;DHT22;12052;53.478;10.182;2023-08-24T07:24:18;20.50;99.90
23744;DHT22;12052;53.478;10.182;2023-08-24T07:26:52;20.60;99.90
23744;DHT22;12052;53.478;10.182;2023-08-24T07:29:19;20.70;99.90
23744;DHT22;12052;53.478;10.182;2023-08-24T07:31:44;20.80;99.90
23744;DHT22;12052;53.478;10.182;2023-08-24T07:34:10;20.80;99.90
23744;DHT22;12052;53.478;10.182;2023-08-24T07:36:35;20.90;99.90
23744;DHT22;12052;53.478;10.182;2023-08-24T07:39:01;20.70;99.90
23744;DHT22;12052;53.478;10.182;2023-08-24T07:41:26;20.80;99.90
23744;DHT22;12052;53.478;10.182;2023-08-24T07:43:52;20.80;99.90
23744;DHT22;12052;53.478;10.182;2023-08-24T07:46:18;20.90;99.90
23744;DHT22;12052;53.478;10.182;2023-08-24T07:48:43;21.00;99.90
23744;DHT22;12052;53.478;10.182;2023-08-24T07:51:09;20.90;99.90
23744;DHT22;12052;53.478;10.182;2023-08-24T07:53:34;20.80;99.90
23744;DHT22;12052;53.478;10.182;2023-08-24T07:56:00;20.90;99.90
23744;DHT22;12052;53.478;10.182;2023-08-24T07:58:27;20.90;99.90
23744;DHT22;12052;53.478;10.182;2023-08-24T08:00:52;21.00;99.90
23744;DHT22;12052;53.478;10.182;2023-08-24T08:03:22;21.00;99.90
23744;DHT22;12052;53.478;10.182;2023-08-24T08:05:48;21.10;99.90
23744;DHT22;12052;53.478;10.182;2023-08-24T08:08:14;21.00;99.90
23744;DHT22;12052;53.478;10.182;2023-08-24T08:10:40;21.00;99.90
23744;DHT22;12052;53.478;10.182;2023-08-24T08:13:07;20.90;99.90
23744;DHT22;12052;53.478;10.182;2023-08-24T08:15:33;21.10;99.90
23744;DHT22;12052;53.478;10.182;2023-08-24T08:17:58;21.40;99.90
23744;DHT22;12052;53.478;10.182;2023-08-24T08:20:24;21.50;99.90
23744;DHT22;12052;53.478;10.182;2023-08-24T08:22:50;21.50;99.90
23744;DHT22;12052;53.478;10.182;2023-08-24T08:25:15;21.60;99.90
23744;DHT22;12052;53.478;10.182;2023-08-24T08:27:43;21.70;99.90
23744;DHT22;12052;53.478;10.182;2023-08-24T08:30:09;21.60;99.90
23744;DHT22;12052;53.478;10.182;2023-08-24T08:32:35;21.60;99.90
23744;DHT22;12052;53.478;10.182;2023-08-24T08:35:01;21.60;99.90
23744;DHT22;12052;53.478;10.182;2023-08-24T08:37:27;21.70;99.90
23744;DHT22;12052;53.478;10.182;2023-08-24T08:39:53;21.50;99.90
23744;DHT22;12052;53.478;10.182;2023-08-24T08:42:18;21.40;99.90
23744;DHT22;12052;53.478;10.182;2023-08-24T08:44:46;21.60;99.90
23744;DHT22;12052;53.478;10.182;2023-08-24T08:47:13;21.90;99.90
23744;DHT22;12052;53.478;10.182;2023-08-24T08:49:39;21.90;99.90
23744;DHT22;12052;53.478;10.182;2023-08-24T08:52:05;22.00;99.90
23744;DHT22;12052;53.478;10.182;2023-08-24T08:54:31;22.30;99.90
23744;DHT22;12052;53.478;10.182;2023-08-24T08:56:58;22.40;99.90
23744;DHT22;12052;53.478;10.182;2023-08-24T08:59:27;22.40;99.90
23744;DHT22;12052;53.478;10.182;2023-08-24T09:02:04;22.20;99.90
23744;DHT22;12052;53.478;10.182;2023-08-24T09:04:32;22.30;99.90
23744;DHT22;12052;53.478;10.182;2023-08-24T09:06:59;22.40;99.90
23744;DHT22;12052;53.478;10.182;2023-08-24T09:09:33;22.50;99.90
23744;DHT22;12052;53.478;10.182;2023-08-24T09:11:59;22.60;99.90
23744;DHT22;12052;53.478;10.182;2023-08-24T09:14:25;22.70;99.90
23744;DHT22;12052;53.478;10.182;2023-08-24T09:16:50;22.80;99.90
23744;DHT22;12052;53.478;10.182;2023-08-24T09:19:16;22.80;99.90
23744;DHT22;12052;53.478;10.182;2023-08-24T09:21:41;22.80;99.90
23744;DHT22;12052;53.478;10.182;2023-08-24T09:24:08;23.00;99.90
23744;DHT22;12052;53.478;10.182;2023-08-24T09:26:36;23.20;99.90
23744;DHT22;12052;53.478;10.182;2023-08-24T09:29:13;23.20;99.90
23744;DHT22;12052;53.478;10.182;2023-08-24T09:31:39;23.40;99.90
23744;DHT22;12052;53.478;10.182;2023-08-24T09:34:05;23.20;99.90
23744;DHT22;12052;53.478;10.182;2023-08-24T09:36:32;23.20;99.90
23744;DHT22;12052;53.478;10.182;2023-08-24T09:39:03;23.10;99.90
23744;DHT22;12052;53.478;10.182;2023-08-24T09:41:48;23.20;99.90
23744;DHT22;12052;53.478;10.182;2023-08-24T09:44:13;23.20;99.90
23744;DHT22;12052;53.478;10.182;2023-08-24T09:46:39;23.20;99.90
23744;DHT22;12052;53.478;10.182;2023-08-24T09:49:08;23.20;99.90
23744;DHT22;12052;53.478;10.182;2023-08-24T09:51:35;23.40;99.90
23744;DHT22;12052;53.478;10.182;2023-08-24T09:54:05;23.40;99.90
23744;DHT22;12052;53.478;10.182;2023-08-24T09:56:38;23.60;99.90
23744;DHT22;12052;53.478;10.182;2023-08-24T09:59:11;23.70;99.90
23744;DHT22;12052;53.478;10.182;2023-08-24T10:01:43;23.80;99.90
23744;DHT22;12052;53.478;10.182;2023-08-24T10:04:09;23.90;99.90
23744;DHT22;12052;53.478;10.182;2023-08-24T10:06:36;24.10;99.90
23744;DHT22;12052;53.478;10.182;2023-08-24T10:09:06;24.10;99.90
23744;DHT22;12052;53.478;10.182;2023-08-24T10:11:35;23.90;99.90
23744;DHT22;12052;53.478;10.182;2023-08-24T10:16:33;24.00;99.90
23744;DHT22;12052;53.478;10.182;2023-08-24T10:19:02;24.10;99.90
23744;DHT22;12052;53.478;10.182;2023-08-24T10:21:28;24.10;99.90
23744;DHT22;12052;53.478;10.182;2023-08-24T10:23:56;24.20;99.90
23744;DHT22;12052;53.478;10.182;2023-08-24T10:26:23;24.40;99.90
23744;DHT22;12052;53.478;10.182;2023-08-24T10:28:50;24.60;99.90
23744;DHT22;12052;53.478;10.182;2023-08-24T10:31:16;24.50;99.90
23744;DHT22;12052;53.478;10.182;2023-08-24T10:33:42;24.20;99.90
23744;DHT22;12052;53.478;10.182;2023-08-24T10:36:09;23.90;99.90
23744;DHT22;12052;53.478;10.182;2023-08-24T10:38:40;23.70;99.90
23744;DHT22;12052;53.478;10.182;2023-08-24T10:41:07;23.70;99.90
23744;DHT22;12052;53.478;10.182;2023-08-24T10:43:49;23.70;99.90
23744;DHT22;12052;53.478;10.182;2023-08-24T10:46:16;23.50;99.90
23744;DHT22;12052;53.478;10.182;2023-08-24T10:51:20;23.90;99.90
23744;DHT22;12052;53.478;10.182;2023-08-24T10:54:00;24.10;99.90
23744;DHT22;12052;53.478;10.182;2023-08-24T10:56:35;24.40;99.90
23744;DHT22;12052;53.478;10.182;2023-08-24T10:59:17;24.60;99.90
23744;DHT22;12052;53.478;10.182;2023-08-24T11:01:54;24.70;99.90
23744;DHT22;12052;53.478;10.182;2023-08-24T11:04:20;24.80;99.90
23744;DHT22;12052;53.478;10.182;2023-08-24T11:06:52;24.80;99.90
23744;DHT22;12052;53.478;10.182;2023-08-24T11:09:18;25.00;99.90
23744;DHT22;12052;53.478;10.182;2023-08-24T11:11:59;25.10;99.90
23744;DHT22;12052;53.478;10.182;2023-08-24T11:14:25;25.10;99.90
23744;DHT22;12052;53.478;10.182;2023-08-24T11:16:52;25.30;99.90
23744;DHT22;12052;53.478;10.182;2023-08-24T11:19:18;25.30;99.90
23744;DHT22;12052;53.478;10.182;2023-08-24T11:21:45;25.30;99.90
23744;DHT22;12052;53.478;10.182;2023-08-24T11:24:12;25.20;99.90
23744;DHT22;12052;53.478;10.182;2023-08-24T11:26:49;25.50;99.90
23744;DHT22;12052;53.478;10.182;2023-08-24T11:29:15;25.40;99.90
23744;DHT22;12052;53.478;10.182;2023-08-24T11:31:41;25.20;99.90
23744;DHT22;12052;53.478;10.182;2023-08-24T11:34:15;25.10;99.90
23744;DHT22;12052;53.478;10.182;2023-08-24T11:36:47;25.30;99.90
23744;DHT22;12052;53.478;10.182;2023-08-24T11:39:16;25.30;99.90
23744;DHT22;12052;53.478;10.182;2023-08-24T11:41:43;25.40;99.90
23744;DHT22;12052;53.478;10.182;2023-08-24T11:44:10;25.50;99.90
23744;DHT22;12052;53.478;10.182;2023-08-24T11:46:37;25.50;99.90
23744;DHT22;12052;53.478;10.182;2023-08-24T11:49:05;25.20;99.90
23744;DHT22;12052;53.478;10.182;2023-08-24T11:51:31;25.10;99.90
23744;DHT22;12052;53.478;10.182;2023-08-24T11:53:59;25.30;99.90
23744;DHT22;12052;53.478;10.182;2023-08-24T11:56:25;25.30;99.90
23744;DHT22;12052;53.478;10.182;2023-08-24T11:58:50;25.20;99.90
23744;DHT22;12052;53.478;10.182;2023-08-24T12:01:16;25.30;99.90
23744;DHT22;12052;53.478;10.182;2023-08-24T12:03:42;25.40;99.90
23744;DHT22;12052;53.478;10.182;2023-08-24T12:06:17;25.40;99.90
23744;DHT22;12052;53.478;10.182;2023-08-24T12:08:45;25.40;99.90
23744;DHT22;12052;53.478;10.182;2023-08-24T12:11:17;25.60;99.90
23744;DHT22;12052;53.478;10.182;2023-08-24T12:13:44;25.70;99.90
23744;DHT22;12052;53.478;10.182;2023-08-24T12:16:11;25.70;99.90
23744;DHT22;12052;53.478;10.182;2023-08-24T12:18:51;25.60;99.90
23744;DHT22;12052;53.478;10.182;2023-08-24T12:21:16;25.60;99.90
23744;DHT22;12052;53.478;10.182;2023-08-24T12:23:42;25.50;99.90
23744;DHT22;12052;53.478;10.182;2023-08-24T12:26:08;25.50;99.90
23744;DHT22;12052;53.478;10.182;2023-08-24T12:28:34;25.60;99.90
23744;DHT22;12052;53.478;10.182;2023-08-24T12:31:00;25.80;99.90
23744;DHT22;12052;53.478;10.182;2023-08-24T12:33:29;25.60;99.90
23744;DHT22;12052;53.478;10.182;2023-08-24T12:35:55;25.40;99.90
23744;DHT22;12052;53.478;10.182;2023-08-24T12:38:22;25.50;99.90
23744;DHT22;12052;53.478;10.182;2023-08-24T12:40:48;25.50;99.90
23744;DHT22;12052;53.478;10.182;2023-08-24T12:43:13;25.70;99.90
23744;DHT22;12052;53.478;10.182;2023-08-24T12:45:42;25.90;99.90
23744;DHT22;12052;53.478;10.182;2023-08-24T12:48:09;26.10;99.90
23744;DHT22;12052;53.478;10.182;2023-08-24T12:50:37;26.10;99.90
23744;DHT22;12052;53.478;10.182;2023-08-24T12:53:04;26.10;99.90
23744;DHT22;12052;53.478;10.182;2023-08-24T12:55:32;26.20;99.90
23744;DHT22;12052;53.478;10.182;2023-08-24T12:57:57;26.30;99.90
23744;DHT22;12052;53.478;10.182;2023-08-24T13:00:23;26.20;99.90
23744;DHT22;12052;53.478;10.182;2023-08-24T13:02:49;26.40;99.90
23744;DHT22;12052;53.478;10.182;2023-08-24T13:05:15;26.50;99.90
23744;DHT22;12052;53.478;10.182;2023-08-24T13:07:40;26.60;99.90
23744;DHT22;12052;53.478;10.182;2023-08-24T13:10:06;26.40;99.90
23744;DHT22;12052;53.478;10.182;2023-08-24T13:12:34;26.40;99.90
23744;DHT22;12052;53.478;10.182;2023-08-24T13:14:59;26.50;99.90
23744;DHT22;12052;53.478;10.182;2023-08-24T13:17:25;26.50;99.90
23744;DHT22;12052;53.478;10.182;2023-08-24T13:19:50;26.40;99.90
23744;DHT22;12052;53.478;10.182;2023-08-24T13:22:16;26.50;99.90
23744;DHT22;12052;53.478;10.182;2023-08-24T13:24:42;26.30;99.90
23744;DHT22;12052;53.478;10.182;2023-08-24T13:27:09;26.30;99.90
23744;DHT22;12052;53.478;10.182;2023-08-24T13:29:40;26.30;99.90
23744;DHT22;12052;53.478;10.182;2023-08-24T13:32:06;26.30;99.90
23744;DHT22;12052;53.478;10.182;2023-08-24T13:34:32;26.30;99.90
23744;DHT22;12052;53.478;10.182;2023-08-24T13:36:58;26.20;99.90
23744;DHT22;12052;53.478;10.182;2023-08-24T13:39:27;26.10;99.90
23744;DHT22;12052;53.478;10.182;2023-08-24T13:41:54;26.00;99.90
23744;DHT22;12052;53.478;10.182;2023-08-24T13:44:20;26.00;99.90
23744;DHT22;12052;53.478;10.182;2023-08-24T13:46:46;25.90;99.90
23744;DHT22;12052;53.478;10.182;2023-08-24T13:49:11;25.90;99.90
23744;DHT22;12052;53.478;10.182;2023-08-24T13:51:37;25.90;99.90
23744;DHT22;12052;53.478;10.182;2023-08-24T13:54:11;25.80;99.90
23744;DHT22;12052;53.478;10.182;2023-08-24T13:56:37;25.80;99.90
23744;DHT22;12052;53.478;10.182;2023-08-24T13:59:03;25.80;99.90
23744;DHT22;12052;53.478;10.182;2023-08-24T14:01:29;25.80;99.90
23744;DHT22;12052;53.478;10.182;2023-08-24T14:03:54;25.70;99.90
23744;DHT22;12052;53.478;10.182;2023-08-24T14:06:20;25.70;99.90
23744;DHT22;12052;53.478;10.182;2023-08-24T14:08:46;25.70;99.90
23744;DHT22;12052;53.478;10.182;2023-08-24T14:11:11;25.80;99.90
23744;DHT22;12052;53.478;10.182;2023-08-24T14:13:37;25.90;99.90
23744;DHT22;12052;53.478;10.182;2023-08-24T14:16:03;25.90;99.90
23744;DHT22;12052;53.478;10.182;2023-08-24T14:18:29;25.90;99.90
23744;DHT22;12052;53.478;10.182;2023-08-24T14:20:56;26.00;99.90
23744;DHT22;12052;53.478;10.182;2023-08-24T14:23:21;26.00;99.90
23744;DHT22;12052;53.478;10.182;2023-08-24T14:25:47;26.00;99.90
23744;DHT22;12052;53.478;10.182;2023-08-24T14:28:13;26.00;99.90
23744;DHT22;12052;53.478;10.182;2023-08-24T14:30:39;26.00;99.90
23744;DHT22;12052;53.478;10.182;2023-08-24T14:33:05;25.90;99.90
23744;DHT22;12052;53.478;10.182;2023-08-24T14:35:31;25.90;99.90
23744;DHT22;12052;53.478;10.182;2023-08-24T14:37:57;25.90;99.90
23744;DHT22;12052;53.478;10.182;2023-08-24T14:40:23;25.90;99.90
23744;DHT22;12052;53.478;10.182;2023-08-24T14:42:48;25.90;99.90
23744;DHT22;12052;53.478;10.182;2023-08-24T14:45:15;25.90;99.90
23744;DHT22;12052;53.478;10.182;2023-08-24T14:47:41;25.90;99.90
23744;DHT22;12052;53.478;10.182;2023-08-24T14:50:07;25.90;99.90
23744;DHT22;12052;53.478;10.182;2023-08-24T14:52:32;25.90;99.90
23744;DHT22;12052;53.478;10.182;2023-08-24T14:54:58;25.80;99.90
23744;DHT22;12052;53.478;10.182;2023-08-24T14:57:23;25.70;99.90
23744;DHT22;12052;53.478;10.182;2023-08-24T14:59:49;25.60;99.90
23744;DHT22;12052;53.478;10.182;2023-08-24T15:02:15;25.70;99.90
23744;DHT22;12052;53.478;10.182;2023-08-24T15:04:41;25.60;99.90
23744;DHT22;12052;53.478;10.182;2023-08-24T15:07:07;25.60;99.90
23744;DHT22;12052;53.478;10.182;2023-08-24T15:09:32;25.70;99.90
23744;DHT22;12052;53.478;10.182;2023-08-24T15:11:58;25.60;99.90
23744;DHT22;12052;53.478;10.182;2023-08-24T15:14:24;25.50;99.90
23744;DHT22;12052;53.478;10.182;2023-08-24T15:16:49;25.60;99.90
23744;DHT22;12052;53.478;10.182;2023-08-24T15:19:15;25.50;99.90
23744;DHT22;12052;53.478;10.182;2023-08-24T15:21:40;25.50;99.90